sensor_id;sensor_type;location;lat;lon;timestamp;P1;durP1;ratioP1;P2;durP2;ratioP2
34585;SDS011;20816;50.950;11.108;2023-06-01T00:00:56;1.30;;;0.77;;
34585;SDS011;20816;50.950;11.108;2023-06-01T00:03:25;0.80;;;0.57;;
34585;SDS011;20816;50.950;11.108;2023-06-01T00:05:53;1.73;;;0.90;;
34585;SDS011;20816;50.950;11.108;2023-06-01T00:08:20;0.83;;;0.67;;
34585;SDS011;20816;50.950;11.108;2023-06-01T00:10:48;0.83;;;0.70;;
34585;SDS011;20816;50.950;11.108;2023-06-01T00:13:15;1.43;;;0.80;;
34585;SDS011;20816;50.950;11.108;2023-06-01T00:15:42;1.37;;;0.70;;
34585;SDS011;20816;50.950;11.108;2023-06-01T00:18:10;2.57;;;1.07;;
34585;SDS011;20816;50.950;11.108;2023-06-01T00:20:39;1.23;;;0.50;;
34585;SDS011;20816;50.950;11.108;2023-06-01T00:23:05;1.77;;;0.60;;
34585;SDS011;20816;50.950;11.108;2023-06-01T00:25:32;6.03;;;0.70;;
34585;SDS011;20816;50.950;11.108;2023-06-01T00:27:59;1.00;;;0.57;;
34585;SDS011;20816;50.950;11.108;2023-06-01T00:30:28;0.90;;;0.50;;
34585;SDS011;20816;50.950;11.108;2023-06-01T00:32:55;1.17;;;0.67;;
34585;SDS011;20816;50.950;11.108;2023-06-01T00:35:22;0.50;;;0.40;;
34585;SDS011;20816;50.950;11.108;2023-06-01T00:37:49;6.37;;;0.87;;
34585;SDS011;20816;50.950;11.108;2023-06-01T00:40:16;1.20;;;0.90;;
34585;SDS011;20816;50.950;11.108;2023-06-01T00:42:42;0.60;;;0.50;;
34585;SDS011;20816;50.950;11.108;2023-06-01T00:45:09;0.90;;;0.57;;
34585;SDS011;20816;50.950;11.108;2023-06-01T00:47:39;3.03;;;0.50;;
34585;SDS011;20816;50.950;11.108;2023-06-01T00:50:12;2.77;;;0.60;;
34585;SDS011;20816;50.950;11.108;2023-06-01T00:52:39;1.03;;;0.40;;
34585;SDS011;20816;50.950;11.108;2023-06-01T00:55:07;2.20;;;0.60;;
34585;SDS011;20816;50.950;11.108;2023-06-01T00:57:35;0.87;;;0.80;;
34585;SDS011;20816;50.950;11.108;2023-06-01T01:00:03;1.73;;;0.70;;
34585;SDS011;20816;50.950;11.108;2023-06-01T01:02:36;3.33;;;1.00;;
34585;SDS011;20816;50.950;11.108;2023-06-01T01:05:08;1.10;;;0.77;;
34585;SDS011;20816;50.950;11.108;2023-06-01T01:07:50;0.83;;;0.63;;
34585;SDS011;20816;50.950;11.108;2023-06-01T01:13:13;0.60;;;0.60;;
34585;SDS011;20816;50.950;11.108;2023-06-01T01:21:29;1.10;;;1.00;;
34585;SDS011;20816;50.950;11.108;2023-06-01T01:24:05;1.30;;;0.87;;
34585;SDS011;20816;50.950;11.108;2023-06-01T01:26:52;0.97;;;0.73;;
34585;SDS011;20816;50.950;11.108;2023-06-01T01:29:28;2.43;;;0.90;;
34585;SDS011;20816;50.950;11.108;2023-06-01T01:31:59;0.70;;;0.70;;
34585;SDS011;20816;50.950;11.108;2023-06-01T01:34:27;1.43;;;1.27;;
34585;SDS011;20816;50.950;11.108;2023-06-01T01:36:55;2.37;;;0.90;;
34585;SDS011;20816;50.950;11.108;2023-06-01T01:39:22;2.07;;;0.57;;
34585;SDS011;20816;50.950;11.108;2023-06-01T01:41:48;0.97;;;0.80;;
34585;SDS011;20816;50.950;11.108;2023-06-01T01:44:15;1.70;;;0.63;;
34585;SDS011;20816;50.950;11.108;2023-06-01T01:46:47;5.23;;;0.60;;
34585;SDS011;20816;50.950;11.108;2023-06-01T01:49:24;1.23;;;0.63;;
34585;SDS011;20816;50.950;11.108;2023-06-01T01:51:56;2.53;;;0.90;;
34585;SDS011;20816;50.950;11.108;2023-06-01T01:54:34;0.53;;;0.53;;
34585;SDS011;20816;50.950;11.108;2023-06-01T01:57:06;1.93;;;0.73;;
34585;SDS011;20816;50.950;11.108;2023-06-01T01:59:34;2.20;;;0.77;;
34585;SDS011;20816;50.950;11.108;2023-06-01T02:02:02;1.13;;;0.90;;
34585;SDS011;20816;50.950;11.108;2023-06-01T02:04:29;2.53;;;0.83;;
34585;SDS011;20816;50.950;11.108;2023-06-01T02:06:56;1.60;;;0.73;;
34585;SDS011;20816;50.950;11.108;2023-06-01T02:09:23;1.43;;;1.00;;
34585;SDS011;20816;50.950;11.108;2023-06-01T02:11:50;3.23;;;1.67;;
34585;SDS011;20816;50.950;11.108;2023-06-01T02:14:16;1.80;;;1.10;;
34585;SDS011;20816;50.950;11.108;2023-06-01T02:16:43;1.50;;;1.40;;
34585;SDS011;20816;50.950;11.108;2023-06-01T02:19:11;2.27;;;0.60;;
34585;SDS011;20816;50.950;11.108;2023-06-01T02:21:37;0.87;;;0.70;;
34585;SDS011;20816;50.950;11.108;2023-06-01T02:24:04;3.37;;;1.07;;
34585;SDS011;20816;50.950;11.108;2023-06-01T02:26:33;4.17;;;0.90;;
34585;SDS011;20816;50.950;11.108;2023-06-01T02:29:00;1.10;;;0.87;;
34585;SDS011;20816;50.950;11.108;2023-06-01T02:31:34;1.03;;;0.70;;
34585;SDS011;20816;50.950;11.108;2023-06-01T02:34:01;1.10;;;0.80;;
34585;SDS011;20816;50.950;11.108;2023-06-01T02:36:29;2.47;;;1.23;;
34585;SDS011;20816;50.950;11.108;2023-06-01T02:38:55;1.83;;;1.20;;
34585;SDS011;20816;50.950;11.108;2023-06-01T02:41:22;1.53;;;0.90;;
34585;SDS011;20816;50.950;11.108;2023-06-01T02:43:49;1.07;;;0.70;;
34585;SDS011;20816;50.950;11.108;2023-06-01T02:46:19;2.90;;;1.17;;
34585;SDS011;20816;50.950;11.108;2023-06-01T02:48:46;2.07;;;0.80;;
34585;SDS011;20816;50.950;11.108;2023-06-01T02:51:13;5.40;;;0.80;;
34585;SDS011;20816;50.950;11.108;2023-06-01T02:53:40;1.63;;;1.00;;
34585;SDS011;20816;50.950;11.108;2023-06-01T02:56:07;3.27;;;0.80;;
34585;SDS011;20816;50.950;11.108;2023-06-01T02:58:34;0.80;;;0.70;;
34585;SDS011;20816;50.950;11.108;2023-06-01T03:01:01;2.53;;;1.10;;
34585;SDS011;20816;50.950;11.108;2023-06-01T03:03:28;1.13;;;0.87;;
34585;SDS011;20816;50.950;11.108;2023-06-01T03:05:55;1.60;;;0.77;;
34585;SDS011;20816;50.950;11.108;2023-06-01T03:08:22;2.50;;;1.10;;
34585;SDS011;20816;50.950;11.108;2023-06-01T03:10:51;2.23;;;0.73;;
34585;SDS011;20816;50.950;11.108;2023-06-01T03:13:17;1.57;;;0.90;;
34585;SDS011;20816;50.950;11.108;2023-06-01T03:15:44;1.83;;;0.70;;
34585;SDS011;20816;50.950;11.108;2023-06-01T03:18:11;1.80;;;1.03;;
34585;SDS011;20816;50.950;11.108;2023-06-01T03:20:38;2.00;;;1.07;;
34585;SDS011;20816;50.950;11.108;2023-06-01T03:23:05;1.20;;;0.80;;
34585;SDS011;20816;50.950;11.108;2023-06-01T03:25:32;1.67;;;0.80;;
34585;SDS011;20816;50.950;11.108;2023-06-01T03:27:59;2.67;;;1.17;;
34585;SDS011;20816;50.950;11.108;2023-06-01T03:30:26;1.53;;;1.00;;
34585;SDS011;20816;50.950;11.108;2023-06-01T03:32:53;2.40;;;1.40;;
34585;SDS011;20816;50.950;11.108;2023-06-01T03:35:20;2.20;;;0.77;;
34585;SDS011;20816;50.950;11.108;2023-06-01T03:37:47;3.90;;;1.00;;
34585;SDS011;20816;50.950;11.108;2023-06-01T03:40:13;2.13;;;1.13;;
34585;SDS011;20816;50.950;11.108;2023-06-01T03:45:07;1.07;;;0.80;;
34585;SDS011;20816;50.950;11.108;2023-06-01T03:47:35;1.77;;;1.00;;
34585;SDS011;20816;50.950;11.108;2023-06-01T03:50:02;1.80;;;0.87;;
34585;SDS011;20816;50.950;11.108;2023-06-01T03:52:30;1.80;;;0.97;;
34585;SDS011;20816;50.950;11.108;2023-06-01T03:54:57;0.90;;;0.50;;
34585;SDS011;20816;50.950;11.108;2023-06-01T03:57:27;1.87;;;1.07;;
34585;SDS011;20816;50.950;11.108;2023-06-01T03:59:54;2.17;;;1.30;;
34585;SDS011;20816;50.950;11.108;2023-06-01T04:02:21;1.20;;;0.70;;
34585;SDS011;20816;50.950;11.108;2023-06-01T04:04:49;1.57;;;0.80;;
34585;SDS011;20816;50.950;11.108;2023-06-01T04:07:16;2.20;;;0.87;;
34585;SDS011;20816;50.950;11.108;2023-06-01T04:09:48;0.90;;;0.70;;
34585;SDS011;20816;50.950;11.108;2023-06-01T04:12:15;1.50;;;0.87;;
34585;SDS011;20816;50.950;11.108;2023-06-01T04:14:42;3.53;;;0.87;;
34585;SDS011;20816;50.950;11.108;2023-06-01T04:17:08;1.27;;;0.80;;
34585;SDS011;20816;50.950;11.108;2023-06-01T04:19:35;1.43;;;0.87;;
34585;SDS011;20816;50.950;11.108;2023-06-01T04:22:02;3.43;;;0.70;;
34585;SDS011;20816;50.950;11.108;2023-06-01T04:24:29;1.50;;;0.70;;
34585;SDS011;20816;50.950;11.108;2023-06-01T04:26:56;1.60;;;1.33;;
34585;SDS011;20816;50.950;11.108;2023-06-01T04:29:25;2.93;;;1.10;;
34585;SDS011;20816;50.950;11.108;2023-06-01T04:31:52;2.13;;;0.63;;
34585;SDS011;20816;50.950;11.108;2023-06-01T04:34:21;2.43;;;0.90;;
34585;SDS011;20816;50.950;11.108;2023-06-01T04:36:50;2.10;;;1.23;;
34585;SDS011;20816;50.950;11.108;2023-06-01T04:39:17;1.37;;;0.60;;
34585;SDS011;20816;50.950;11.108;2023-06-01T04:41:44;2.17;;;1.30;;
34585;SDS011;20816;50.950;11.108;2023-06-01T04:44:11;2.20;;;0.70;;
34585;SDS011;20816;50.950;11.108;2023-06-01T04:46:39;1.77;;;1.10;;
34585;SDS011;20816;50.950;11.108;2023-06-01T04:49:07;4.87;;;0.90;;
34585;SDS011;20816;50.950;11.108;2023-06-01T04:51:34;1.90;;;1.33;;
34585;SDS011;20816;50.950;11.108;2023-06-01T04:54:03;1.97;;;0.60;;
34585;SDS011;20816;50.950;11.108;2023-06-01T04:56:30;1.40;;;0.90;;
34585;SDS011;20816;50.950;11.108;2023-06-01T04:58:58;1.87;;;0.63;;
34585;SDS011;20816;50.950;11.108;2023-06-01T05:01:25;2.63;;;1.17;;
34585;SDS011;20816;50.950;11.108;2023-06-01T05:03:52;2.50;;;1.10;;
34585;SDS011;20816;50.950;11.108;2023-06-01T05:06:22;1.63;;;0.90;;
34585;SDS011;20816;50.950;11.108;2023-06-01T05:08:49;1.30;;;0.80;;
34585;SDS011;20816;50.950;11.108;2023-06-01T05:11:16;4.33;;;1.77;;
34585;SDS011;20816;50.950;11.108;2023-06-01T05:13:43;1.97;;;0.77;;
34585;SDS011;20816;50.950;11.108;2023-06-01T05:16:10;7.07;;;1.03;;
34585;SDS011;20816;50.950;11.108;2023-06-01T05:18:38;1.10;;;0.60;;
34585;SDS011;20816;50.950;11.108;2023-06-01T05:21:04;0.83;;;0.70;;
34585;SDS011;20816;50.950;11.108;2023-06-01T05:23:31;1.97;;;0.87;;
34585;SDS011;20816;50.950;11.108;2023-06-01T05:25:58;1.10;;;0.73;;
34585;SDS011;20816;50.950;11.108;2023-06-01T05:28:29;1.63;;;1.03;;
34585;SDS011;20816;50.950;11.108;2023-06-01T05:31:00;2.75;;;0.82;;
34585;SDS011;20816;50.950;11.108;2023-06-01T05:33:28;0.88;;;0.80;;
34585;SDS011;20816;50.950;11.108;2023-06-01T05:35:55;3.40;;;1.20;;
34585;SDS011;20816;50.950;11.108;2023-06-01T05:38:22;1.17;;;0.80;;
34585;SDS011;20816;50.950;11.108;2023-06-01T05:40:49;3.22;;;1.20;;
34585;SDS011;20816;50.950;11.108;2023-06-01T05:43:16;1.20;;;0.90;;
34585;SDS011;20816;50.950;11.108;2023-06-01T05:45:43;1.45;;;1.00;;
34585;SDS011;20816;50.950;11.108;2023-06-01T05:48:10;2.47;;;1.05;;
34585;SDS011;20816;50.950;11.108;2023-06-01T05:50:43;1.83;;;1.23;;
34585;SDS011;20816;50.950;11.108;2023-06-01T05:53:09;4.68;;;0.90;;
34585;SDS011;20816;50.950;11.108;2023-06-01T05:55:36;1.70;;;1.02;;
34585;SDS011;20816;50.950;11.108;2023-06-01T05:58:03;0.73;;;0.73;;
34585;SDS011;20816;50.950;11.108;2023-06-01T06:00:30;1.75;;;0.70;;
34585;SDS011;20816;50.950;11.108;2023-06-01T06:02:57;1.92;;;1.30;;
34585;SDS011;20816;50.950;11.108;2023-06-01T06:05:24;3.72;;;0.90;;
34585;SDS011;20816;50.950;11.108;2023-06-01T06:07:51;1.85;;;1.00;;
34585;SDS011;20816;50.950;11.108;2023-06-01T06:10:17;4.13;;;1.00;;
34585;SDS011;20816;50.950;11.108;2023-06-01T06:12:44;2.15;;;0.88;;
34585;SDS011;20816;50.950;11.108;2023-06-01T06:15:11;2.38;;;0.82;;
34585;SDS011;20816;50.950;11.108;2023-06-01T06:17:38;2.00;;;0.80;;
34585;SDS011;20816;50.950;11.108;2023-06-01T06:20:05;1.35;;;0.95;;
34585;SDS011;20816;50.950;11.108;2023-06-01T06:22:33;1.50;;;0.75;;
34585;SDS011;20816;50.950;11.108;2023-06-01T06:25:01;0.85;;;0.73;;
34585;SDS011;20816;50.950;11.108;2023-06-01T06:27:28;1.70;;;0.90;;
34585;SDS011;20816;50.950;11.108;2023-06-01T06:29:55;3.53;;;0.70;;
34585;SDS011;20816;50.950;11.108;2023-06-01T06:32:21;1.88;;;0.88;;
34585;SDS011;20816;50.950;11.108;2023-06-01T06:34:48;3.05;;;0.75;;
34585;SDS011;20816;50.950;11.108;2023-06-01T06:37:16;5.05;;;1.05;;
34585;SDS011;20816;50.950;11.108;2023-06-01T06:39:43;3.75;;;0.82;;
34585;SDS011;20816;50.950;11.108;2023-06-01T06:42:10;2.00;;;1.15;;
34585;SDS011;20816;50.950;11.108;2023-06-01T06:44:37;2.55;;;1.45;;
34585;SDS011;20816;50.950;11.108;2023-06-01T06:47:04;5.75;;;1.13;;
34585;SDS011;20816;50.950;11.108;2023-06-01T06:49:31;1.20;;;0.90;;
34585;SDS011;20816;50.950;11.108;2023-06-01T06:51:58;3.70;;;0.90;;
34585;SDS011;20816;50.950;11.108;2023-06-01T06:54:24;2.10;;;0.75;;
34585;SDS011;20816;50.950;11.108;2023-06-01T06:56:51;2.95;;;1.02;;
34585;SDS011;20816;50.950;11.108;2023-06-01T06:59:18;2.10;;;0.98;;
34585;SDS011;20816;50.950;11.108;2023-06-01T07:01:45;1.55;;;0.80;;
34585;SDS011;20816;50.950;11.108;2023-06-01T07:04:11;1.63;;;0.77;;
34585;SDS011;20816;50.950;11.108;2023-06-01T07:06:38;1.35;;;0.95;;
34585;SDS011;20816;50.950;11.108;2023-06-01T07:09:05;2.92;;;1.05;;
34585;SDS011;20816;50.950;11.108;2023-06-01T07:11:32;7.72;;;1.35;;
34585;SDS011;20816;50.950;11.108;2023-06-01T07:13:59;3.17;;;1.20;;
34585;SDS011;20816;50.950;11.108;2023-06-01T07:16:26;1.50;;;0.80;;
34585;SDS011;20816;50.950;11.108;2023-06-01T07:18:53;0.95;;;0.80;;
34585;SDS011;20816;50.950;11.108;2023-06-01T07:21:20;1.83;;;1.00;;
34585;SDS011;20816;50.950;11.108;2023-06-01T07:23:47;4.07;;;1.25;;
34585;SDS011;20816;50.950;11.108;2023-06-01T07:26:13;2.20;;;0.80;;
34585;SDS011;20816;50.950;11.108;2023-06-01T07:28:40;1.33;;;1.00;;
34585;SDS011;20816;50.950;11.108;2023-06-01T07:31:08;1.88;;;0.70;;
34585;SDS011;20816;50.950;11.108;2023-06-01T07:33:35;2.28;;;1.15;;
34585;SDS011;20816;50.950;11.108;2023-06-01T07:36:02;2.78;;;0.80;;
34585;SDS011;20816;50.950;11.108;2023-06-01T07:38:30;1.42;;;1.02;;
34585;SDS011;20816;50.950;11.108;2023-06-01T07:40:57;2.63;;;0.82;;
34585;SDS011;20816;50.950;11.108;2023-06-01T07:43:24;2.17;;;0.70;;
34585;SDS011;20816;50.950;11.108;2023-06-01T07:45:51;2.17;;;1.00;;
34585;SDS011;20816;50.950;11.108;2023-06-01T07:48:17;3.40;;;1.10;;
34585;SDS011;20816;50.950;11.108;2023-06-01T07:50:44;1.48;;;0.88;;
34585;SDS011;20816;50.950;11.108;2023-06-01T07:53:11;2.45;;;0.80;;
34585;SDS011;20816;50.950;11.108;2023-06-01T07:55:38;3.97;;;1.27;;
34585;SDS011;20816;50.950;11.108;2023-06-01T07:58:04;0.88;;;0.68;;
34585;SDS011;20816;50.950;11.108;2023-06-01T08:00:32;1.85;;;0.60;;
34585;SDS011;20816;50.950;11.108;2023-06-01T08:02:58;1.65;;;0.65;;
34585;SDS011;20816;50.950;11.108;2023-06-01T08:05:25;3.70;;;0.90;;
34585;SDS011;20816;50.950;11.108;2023-06-01T08:07:52;1.73;;;0.90;;
34585;SDS011;20816;50.950;11.108;2023-06-01T08:10:19;1.70;;;1.10;;
34585;SDS011;20816;50.950;11.108;2023-06-01T08:12:46;1.50;;;0.90;;
34585;SDS011;20816;50.950;11.108;2023-06-01T08:15:14;2.30;;;1.67;;
34585;SDS011;20816;50.950;11.108;2023-06-01T08:17:42;1.45;;;0.80;;
34585;SDS011;20816;50.950;11.108;2023-06-01T08:20:10;2.85;;;0.90;;
34585;SDS011;20816;50.950;11.108;2023-06-01T08:22:40;2.42;;;1.25;;
34585;SDS011;20816;50.950;11.108;2023-06-01T08:25:07;2.58;;;0.65;;
34585;SDS011;20816;50.950;11.108;2023-06-01T08:27:33;1.88;;;1.20;;
34585;SDS011;20816;50.950;11.108;2023-06-01T08:30:00;3.88;;;0.70;;
34585;SDS011;20816;50.950;11.108;2023-06-01T08:32:27;0.60;;;0.50;;
34585;SDS011;20816;50.950;11.108;2023-06-01T08:34:54;1.98;;;0.65;;
34585;SDS011;20816;50.950;11.108;2023-06-01T08:37:20;1.15;;;0.63;;
34585;SDS011;20816;50.950;11.108;2023-06-01T08:39:47;1.55;;;0.80;;
34585;SDS011;20816;50.950;11.108;2023-06-01T08:42:21;5.18;;;1.35;;
34585;SDS011;20816;50.950;11.108;2023-06-01T08:45:00;3.35;;;0.85;;
34585;SDS011;20816;50.950;11.108;2023-06-01T08:47:31;3.47;;;1.35;;
34585;SDS011;20816;50.950;11.108;2023-06-01T08:49:58;2.40;;;1.50;;
34585;SDS011;20816;50.950;11.108;2023-06-01T08:52:26;0.60;;;0.50;;
34585;SDS011;20816;50.950;11.108;2023-06-01T08:54:59;1.00;;;0.70;;
34585;SDS011;20816;50.950;11.108;2023-06-01T08:57:27;1.90;;;1.35;;
34585;SDS011;20816;50.950;11.108;2023-06-01T08:59:55;2.63;;;1.17;;
34585;SDS011;20816;50.950;11.108;2023-06-01T09:02:23;1.58;;;0.95;;
34585;SDS011;20816;50.950;11.108;2023-06-01T09:04:50;1.13;;;0.88;;
34585;SDS011;20816;50.950;11.108;2023-06-01T09:07:17;2.97;;;1.00;;
34585;SDS011;20816;50.950;11.108;2023-06-01T09:09:44;1.67;;;0.80;;
34585;SDS011;20816;50.950;11.108;2023-06-01T09:12:50;3.40;;;1.02;;
34585;SDS011;20816;50.950;11.108;2023-06-01T09:15:17;1.92;;;0.90;;
34585;SDS011;20816;50.950;11.108;2023-06-01T09:17:46;1.25;;;1.15;;
34585;SDS011;20816;50.950;11.108;2023-06-01T09:20:14;2.58;;;0.80;;
34585;SDS011;20816;50.950;11.108;2023-06-01T09:22:48;1.55;;;0.75;;
34585;SDS011;20816;50.950;11.108;2023-06-01T09:25:15;2.03;;;1.13;;
34585;SDS011;20816;50.950;11.108;2023-06-01T09:27:51;4.20;;;1.10;;
34585;SDS011;20816;50.950;11.108;2023-06-01T09:30:20;2.47;;;1.02;;
34585;SDS011;20816;50.950;11.108;2023-06-01T09:32:47;2.67;;;1.17;;
34585;SDS011;20816;50.950;11.108;2023-06-01T09:38:03;1.92;;;0.70;;
34585;SDS011;20816;50.950;11.108;2023-06-01T09:40:33;1.73;;;0.80;;
34585;SDS011;20816;50.950;11.108;2023-06-01T09:43:04;3.90;;;0.98;;
34585;SDS011;20816;50.950;11.108;2023-06-01T09:45:45;0.98;;;0.70;;
34585;SDS011;20816;50.950;11.108;2023-06-01T09:48:30;3.25;;;0.82;;
34585;SDS011;20816;50.950;11.108;2023-06-01T09:50:57;2.33;;;1.02;;
34585;SDS011;20816;50.950;11.108;2023-06-01T09:53:27;1.95;;;1.13;;
34585;SDS011;20816;50.950;11.108;2023-06-01T09:55:58;3.17;;;1.20;;
34585;SDS011;20816;50.950;11.108;2023-06-01T09:58:26;2.90;;;0.88;;
34585;SDS011;20816;50.950;11.108;2023-06-01T10:00:53;1.70;;;0.93;;
34585;SDS011;20816;50.950;11.108;2023-06-01T10:03:21;2.17;;;0.80;;
34585;SDS011;20816;50.950;11.108;2023-06-01T10:05:48;1.05;;;0.70;;
34585;SDS011;20816;50.950;11.108;2023-06-01T10:08:17;2.63;;;0.98;;
34585;SDS011;20816;50.950;11.108;2023-06-01T10:10:45;1.85;;;0.80;;
34585;SDS011;20816;50.950;11.108;2023-06-01T10:13:14;2.42;;;1.05;;
34585;SDS011;20816;50.950;11.108;2023-06-01T10:15:41;4.78;;;0.75;;
34585;SDS011;20816;50.950;11.108;2023-06-01T10:18:08;1.73;;;1.00;;
34585;SDS011;20816;50.950;11.108;2023-06-01T10:20:35;2.00;;;1.52;;
34585;SDS011;20816;50.950;11.108;2023-06-01T10:23:04;4.38;;;0.93;;
34585;SDS011;20816;50.950;11.108;2023-06-01T10:25:43;2.45;;;1.60;;
34585;SDS011;20816;50.950;11.108;2023-06-01T10:28:13;3.13;;;0.98;;
34585;SDS011;20816;50.950;11.108;2023-06-01T10:30:42;1.83;;;0.90;;
34585;SDS011;20816;50.950;11.108;2023-06-01T10:33:09;2.97;;;1.58;;
34585;SDS011;20816;50.950;11.108;2023-06-01T10:40:43;1.35;;;1.00;;
34585;SDS011;20816;50.950;11.108;2023-06-01T10:46:02;2.97;;;1.02;;
34585;SDS011;20816;50.950;11.108;2023-06-01T10:51:24;2.28;;;0.70;;
34585;SDS011;20816;50.950;11.108;2023-06-01T10:53:51;2.45;;;1.02;;
34585;SDS011;20816;50.950;11.108;2023-06-01T10:56:22;1.23;;;0.90;;
34585;SDS011;20816;50.950;11.108;2023-06-01T11:01:43;2.35;;;0.95;;
34585;SDS011;20816;50.950;11.108;2023-06-01T11:04:11;1.23;;;0.88;;
34585;SDS011;20816;50.950;11.108;2023-06-01T11:06:40;2.67;;;1.05;;
34585;SDS011;20816;50.950;11.108;2023-06-01T11:09:10;1.75;;;1.15;;
34585;SDS011;20816;50.950;11.108;2023-06-01T11:14:14;2.08;;;1.45;;
34585;SDS011;20816;50.950;11.108;2023-06-01T11:16:42;2.90;;;1.40;;
34585;SDS011;20816;50.950;11.108;2023-06-01T11:19:09;2.30;;;1.45;;
34585;SDS011;20816;50.950;11.108;2023-06-01T11:21:38;2.67;;;0.80;;
34585;SDS011;20816;50.950;11.108;2023-06-01T11:24:17;0.77;;;0.70;;
34585;SDS011;20816;50.950;11.108;2023-06-01T11:26:45;1.50;;;1.10;;
34585;SDS011;20816;50.950;11.108;2023-06-01T11:29:14;1.45;;;1.02;;
34585;SDS011;20816;50.950;11.108;2023-06-01T11:31:52;0.93;;;0.70;;
34585;SDS011;20816;50.950;11.108;2023-06-01T11:34:27;1.05;;;0.95;;
34585;SDS011;20816;50.950;11.108;2023-06-01T11:36:58;2.03;;;1.20;;
34585;SDS011;20816;50.950;11.108;2023-06-01T11:39:25;1.58;;;1.25;;
34585;SDS011;20816;50.950;11.108;2023-06-01T11:42:05;3.10;;;1.67;;
34585;SDS011;20816;50.950;11.108;2023-06-01T11:44:33;3.20;;;1.95;;
34585;SDS011;20816;50.950;11.108;2023-06-01T11:47:00;5.22;;;2.03;;
34585;SDS011;20816;50.950;11.108;2023-06-01T11:49:27;5.40;;;2.30;;
34585;SDS011;20816;50.950;11.108;2023-06-01T11:51:54;3.35;;;1.83;;
34585;SDS011;20816;50.950;11.108;2023-06-01T11:54:25;2.92;;;1.90;;
34585;SDS011;20816;50.950;11.108;2023-06-01T11:56:54;4.20;;;2.35;;
34585;SDS011;20816;50.950;11.108;2023-06-01T11:59:24;5.03;;;2.25;;
34585;SDS011;20816;50.950;11.108;2023-06-01T12:01:51;3.05;;;2.05;;
34585;SDS011;20816;50.950;11.108;2023-06-01T12:04:21;3.58;;;2.30;;
34585;SDS011;20816;50.950;11.108;2023-06-01T12:06:50;5.28;;;2.75;;
34585;SDS011;20816;50.950;11.108;2023-06-01T12:09:17;4.53;;;2.65;;
34585;SDS011;20816;50.950;11.108;2023-06-01T12:11:46;4.88;;;2.15;;
34585;SDS011;20816;50.950;11.108;2023-06-01T12:14:14;4.07;;;2.50;;
34585;SDS011;20816;50.950;11.108;2023-06-01T12:16:51;3.42;;;2.67;;
34585;SDS011;20816;50.950;11.108;2023-06-01T12:19:23;2.92;;;2.10;;
34585;SDS011;20816;50.950;11.108;2023-06-01T12:21:50;4.40;;;2.50;;
34585;SDS011;20816;50.950;11.108;2023-06-01T12:24:18;4.32;;;2.63;;
34585;SDS011;20816;50.950;11.108;2023-06-01T12:26:54;3.58;;;2.55;;
34585;SDS011;20816;50.950;11.108;2023-06-01T12:29:34;4.53;;;2.50;;
34585;SDS011;20816;50.950;11.108;2023-06-01T12:32:04;4.72;;;2.00;;
34585;SDS011;20816;50.950;11.108;2023-06-01T12:34:32;4.28;;;2.60;;
34585;SDS011;20816;50.950;11.108;2023-06-01T12:36:58;4.32;;;2.28;;
34585;SDS011;20816;50.950;11.108;2023-06-01T12:39:31;3.83;;;2.22;;
34585;SDS011;20816;50.950;11.108;2023-06-01T12:42:03;3.90;;;2.47;;
34585;SDS011;20816;50.950;11.108;2023-06-01T12:44:31;5.03;;;2.40;;
34585;SDS011;20816;50.950;11.108;2023-06-01T12:47:03;4.03;;;2.28;;
34585;SDS011;20816;50.950;11.108;2023-06-01T12:49:30;3.72;;;2.22;;
34585;SDS011;20816;50.950;11.108;2023-06-01T12:51:58;5.63;;;2.72;;
34585;SDS011;20816;50.950;11.108;2023-06-01T12:54:25;3.10;;;1.75;;
34585;SDS011;20816;50.950;11.108;2023-06-01T12:56:52;2.65;;;1.60;;
34585;SDS011;20816;50.950;11.108;2023-06-01T12:59:19;2.53;;;1.63;;
34585;SDS011;20816;50.950;11.108;2023-06-01T13:01:45;3.55;;;1.42;;
34585;SDS011;20816;50.950;11.108;2023-06-01T13:04:12;2.63;;;2.10;;
34585;SDS011;20816;50.950;11.108;2023-06-01T13:06:40;3.88;;;1.80;;
34585;SDS011;20816;50.950;11.108;2023-06-01T13:09:07;4.50;;;2.30;;
34585;SDS011;20816;50.950;11.108;2023-06-01T13:11:34;3.83;;;2.00;;
34585;SDS011;20816;50.950;11.108;2023-06-01T13:14:01;3.00;;;1.90;;
34585;SDS011;20816;50.950;11.108;2023-06-01T13:16:28;2.60;;;2.15;;
34585;SDS011;20816;50.950;11.108;2023-06-01T13:18:55;2.10;;;1.40;;
34585;SDS011;20816;50.950;11.108;2023-06-01T13:21:22;2.95;;;1.73;;
34585;SDS011;20816;50.950;11.108;2023-06-01T13:23:48;2.20;;;1.67;;
34585;SDS011;20816;50.950;11.108;2023-06-01T13:26:15;2.92;;;1.65;;
34585;SDS011;20816;50.950;11.108;2023-06-01T13:28:42;3.42;;;2.03;;
34585;SDS011;20816;50.950;11.108;2023-06-01T13:31:09;3.20;;;2.15;;
34585;SDS011;20816;50.950;11.108;2023-06-01T13:33:36;2.92;;;2.28;;
34585;SDS011;20816;50.950;11.108;2023-06-01T13:36:03;3.17;;;2.13;;
34585;SDS011;20816;50.950;11.108;2023-06-01T13:38:30;3.72;;;2.10;;
34585;SDS011;20816;50.950;11.108;2023-06-01T13:40:57;4.75;;;1.98;;
34585;SDS011;20816;50.950;11.108;2023-06-01T13:43:24;3.22;;;2.47;;
34585;SDS011;20816;50.950;11.108;2023-06-01T13:45:52;2.35;;;1.70;;
34585;SDS011;20816;50.950;11.108;2023-06-01T13:48:19;2.95;;;1.90;;
34585;SDS011;20816;50.950;11.108;2023-06-01T13:50:46;2.13;;;1.92;;
34585;SDS011;20816;50.950;11.108;2023-06-01T13:53:13;3.08;;;1.90;;
34585;SDS011;20816;50.950;11.108;2023-06-01T13:55:40;2.70;;;1.90;;
34585;SDS011;20816;50.950;11.108;2023-06-01T13:58:07;2.70;;;1.85;;
34585;SDS011;20816;50.950;11.108;2023-06-01T14:00:34;2.20;;;1.70;;
34585;SDS011;20816;50.950;11.108;2023-06-01T14:03:00;3.33;;;2.42;;
34585;SDS011;20816;50.950;11.108;2023-06-01T14:05:27;2.33;;;1.48;;
34585;SDS011;20816;50.950;11.108;2023-06-01T14:08:14;2.97;;;1.85;;
34585;SDS011;20816;50.950;11.108;2023-06-01T14:10:41;3.10;;;1.75;;
34585;SDS011;20816;50.950;11.108;2023-06-01T14:13:08;2.30;;;1.58;;
34585;SDS011;20816;50.950;11.108;2023-06-01T14:15:35;2.40;;;1.67;;
34585;SDS011;20816;50.950;11.108;2023-06-01T14:18:02;4.25;;;2.17;;
34585;SDS011;20816;50.950;11.108;2023-06-01T14:20:29;1.75;;;1.65;;
34585;SDS011;20816;50.950;11.108;2023-06-01T14:22:56;2.67;;;1.50;;
34585;SDS011;20816;50.950;11.108;2023-06-01T14:25:23;2.80;;;2.03;;
34585;SDS011;20816;50.950;11.108;2023-06-01T14:27:51;2.70;;;1.40;;
34585;SDS011;20816;50.950;11.108;2023-06-01T14:30:18;2.50;;;1.65;;
34585;SDS011;20816;50.950;11.108;2023-06-01T14:32:45;3.10;;;1.63;;
34585;SDS011;20816;50.950;11.108;2023-06-01T14:35:12;4.85;;;1.80;;
34585;SDS011;20816;50.950;11.108;2023-06-01T14:37:42;2.60;;;1.48;;
34585;SDS011;20816;50.950;11.108;2023-06-01T14:40:15;1.90;;;1.30;;
34585;SDS011;20816;50.950;11.108;2023-06-01T14:42:42;3.35;;;1.80;;
34585;SDS011;20816;50.950;11.108;2023-06-01T14:45:09;1.30;;;1.10;;
34585;SDS011;20816;50.950;11.108;2023-06-01T14:47:37;1.70;;;1.08;;
34585;SDS011;20816;50.950;11.108;2023-06-01T14:50:08;2.10;;;1.38;;
34585;SDS011;20816;50.950;11.108;2023-06-01T14:52:35;1.05;;;0.88;;
34585;SDS011;20816;50.950;11.108;2023-06-01T14:55:02;2.28;;;1.10;;
34585;SDS011;20816;50.950;11.108;2023-06-01T14:57:29;1.77;;;1.45;;
34585;SDS011;20816;50.950;11.108;2023-06-01T14:59:56;3.55;;;1.25;;
34585;SDS011;20816;50.950;11.108;2023-06-01T15:02:30;4.88;;;1.30;;
34585;SDS011;20816;50.950;11.108;2023-06-01T15:04:57;1.23;;;1.13;;
34585;SDS011;20816;50.950;11.108;2023-06-01T15:07:24;1.92;;;1.48;;
34585;SDS011;20816;50.950;11.108;2023-06-01T15:09:50;0.95;;;0.90;;